createdAt,value
2019-03-16T00:02:20.424Z,4.90
2019-03-16T00:04:50.351Z,4.50
2019-03-16T00:07:32.447Z,4.72
2019-03-16T00:09:51.914Z,3.95
2019-03-16T00:12:21.907Z,4.55
2019-03-16T00:14:51.834Z,4.60
2019-03-16T00:17:25.297Z,4.17
2019-03-16T00:20:02.745Z,3.85
2019-03-16T00:22:34.197Z,4.00
2019-03-16T00:25:05.672Z,5.30
2019-03-16T00:27:43.295Z,3.95
2019-03-16T00:32:45.229Z,5.97
2019-03-16T00:35:15.369Z,6.12
2019-03-16T00:37:45.428Z,6.33
2019-03-16T00:40:16.936Z,5.90
2019-03-16T00:42:46.985Z,5.58
2019-03-16T00:45:18.719Z,5.22
2019-03-16T00:47:53.478Z,5.83
2019-03-16T00:50:20.860Z,5.58
2019-03-16T00:52:50.755Z,5.33
2019-03-16T00:55:22.374Z,5.37
2019-03-16T00:58:13.311Z,5.28
2019-03-16T01:00:59.485Z,5.30
2019-03-16T01:03:30.745Z,6.00
2019-03-16T01:06:00.760Z,5.40
2019-03-16T01:08:38.953Z,5.12
2019-03-16T01:11:10.362Z,5.53
2019-03-16T01:26:28.296Z,4.58
2019-03-16T01:57:50.118Z,3.27
2019-03-16T02:22:13.631Z,2.83
2019-03-16T02:24:45.208Z,2.40
2019-03-16T02:27:18.558Z,2.72
2019-03-16T02:29:53.331Z,2.40
2019-03-16T02:32:26.536Z,2.67
2019-03-16T02:35:06.120Z,2.85
2019-03-16T02:37:39.760Z,3.05
2019-03-16T02:40:23.259Z,2.72
2019-03-16T02:42:59.300Z,2.10
2019-03-16T02:45:34.117Z,2.55
2019-03-16T02:48:12.111Z,2.47
2019-03-16T02:50:43.751Z,2.80
2019-03-16T02:53:19.465Z,2.52
2019-03-16T02:55:49.353Z,2.22
2019-03-16T02:58:28.247Z,2.95
2019-03-16T03:01:02.243Z,2.30
2019-03-16T03:03:36.813Z,2.70
2019-03-16T03:06:10.984Z,3.45
2019-03-16T03:08:46.231Z,3.15
2019-03-16T03:11:17.607Z,2.85
2019-03-16T03:13:47.452Z,2.65
2019-03-16T03:16:17.768Z,3.05
2019-03-16T03:18:49.549Z,2.70
2019-03-16T03:21:19.348Z,2.60
2019-03-16T03:23:49.216Z,3.08
2019-03-16T03:26:19.053Z,2.80
2019-03-16T03:28:48.902Z,2.20
2019-03-16T03:31:18.813Z,4.25
2019-03-16T03:34:00.491Z,3.60
2019-03-16T03:36:20.185Z,3.30
2019-03-16T03:38:50.001Z,2.92
2019-03-16T03:41:20.008Z,3.87
2019-03-16T03:43:49.862Z,3.10
2019-03-16T03:46:19.837Z,3.17
2019-03-16T03:48:49.680Z,3.00
2019-03-16T03:51:19.486Z,3.17
2019-03-16T03:53:49.330Z,2.85
2019-03-16T03:56:19.247Z,3.22
2019-03-16T03:58:49.160Z,3.52
2019-03-16T04:01:18.986Z,3.92
2019-03-16T04:03:48.759Z,3.40
2019-03-16T04:06:18.606Z,3.75
2019-03-16T04:08:48.427Z,4.08
2019-03-16T04:11:18.333Z,4.20
2019-03-16T04:13:48.140Z,3.62
2019-03-16T04:16:17.953Z,4.20
2019-03-16T04:18:51.468Z,4.42
2019-03-16T04:21:19.428Z,3.85
2019-03-16T04:23:49.233Z,5.47
2019-03-16T04:26:19.003Z,5.97
2019-03-16T04:28:48.880Z,6.22
2019-03-16T04:31:18.608Z,6.42
2019-03-16T04:33:48.480Z,6.97
2019-03-16T04:36:18.389Z,7.25
2019-03-16T04:38:48.200Z,6.78
2019-03-16T04:41:18.007Z,7.80
2019-03-16T04:43:47.957Z,8.35
2019-03-16T04:46:17.985Z,9.15
2019-03-16T04:48:49.011Z,9.20
2019-03-16T04:51:18.823Z,9.20
2019-03-16T04:53:48.639Z,9.93
2019-03-16T04:56:18.368Z,9.85
2019-03-16T04:58:48.166Z,12.53
2019-03-16T05:01:17.866Z,16.93
2019-03-16T05:03:47.687Z,16.37
2019-03-16T05:06:17.417Z,15.32
2019-03-16T05:08:47.137Z,17.77
2019-03-16T05:11:16.923Z,21.77
2019-03-16T05:13:47.250Z,20.88
2019-03-16T05:16:16.887Z,19.23
2019-03-16T05:18:46.740Z,18.60
2019-03-16T05:21:16.656Z,19.57
2019-03-16T05:23:46.377Z,18.07
2019-03-16T05:26:16.166Z,17.90
2019-03-16T05:28:45.789Z,19.05
2019-03-16T05:31:15.994Z,18.32
2019-03-16T05:33:45.728Z,17.77
2019-03-16T05:36:15.526Z,17.17
2019-03-16T05:38:45.259Z,18.07
2019-03-16T05:41:15.111Z,17.82
2019-03-16T05:43:44.917Z,17.73
2019-03-16T05:46:14.643Z,18.85
2019-03-16T05:48:44.445Z,20.45
2019-03-16T05:51:14.264Z,17.55
2019-03-16T05:53:44.051Z,20.65
2019-03-16T05:56:13.907Z,19.37
2019-03-16T05:58:43.716Z,21.95
2019-03-16T06:01:13.457Z,20.68
2019-03-16T06:03:43.208Z,17.67
2019-03-16T06:06:12.943Z,15.48
2019-03-16T06:08:42.760Z,16.20
2019-03-16T06:11:12.593Z,16.27
2019-03-16T06:13:42.353Z,13.80
2019-03-16T06:16:12.136Z,13.00
2019-03-16T06:18:41.942Z,11.65
2019-03-16T06:21:12.893Z,11.18
2019-03-16T06:23:42.667Z,9.88
2019-03-16T06:26:38.261Z,6.50
2019-03-16T06:29:06.475Z,7.08
2019-03-16T06:31:36.298Z,6.20
2019-03-16T06:34:08.247Z,6.92
2019-03-16T06:36:37.889Z,7.87
2019-03-16T06:39:08.508Z,6.42
2019-03-16T06:41:38.277Z,7.85
2019-03-16T06:44:08.137Z,8.55
2019-03-16T06:46:42.822Z,9.98
2019-03-16T06:52:25.396Z,15.25
2019-03-16T06:55:03.456Z,15.18
2019-03-16T07:07:02.874Z,15.80
2019-03-16T07:09:45.369Z,13.80
2019-03-16T07:12:38.840Z,13.43
2019-03-16T07:15:19.535Z,12.45
2019-03-16T07:18:19.454Z,13.20
2019-03-16T07:27:09.661Z,16.30
2019-03-16T07:29:42.990Z,16.07
2019-03-16T07:32:20.487Z,17.70
2019-03-16T07:37:26.497Z,17.10
2019-03-16T07:39:56.189Z,17.50
2019-03-16T07:42:26.137Z,17.15
2019-03-16T07:45:07.471Z,14.75
2019-03-16T07:47:27.517Z,13.50
2019-03-16T07:49:57.327Z,10.93
2019-03-16T07:52:27.174Z,9.90
2019-03-16T07:54:56.991Z,9.83
2019-03-16T07:57:39.297Z,9.50
2019-03-16T07:59:58.469Z,9.68
2019-03-16T08:02:28.330Z,8.88
2019-03-16T08:04:58.181Z,8.75
2019-03-16T08:07:28.205Z,10.30
2019-03-16T08:09:58.099Z,9.38
2019-03-16T08:12:32.459Z,9.20
2019-03-16T08:15:03.959Z,7.35
2019-03-16T08:17:33.821Z,8.55
2019-03-16T08:20:07.125Z,8.33
2019-03-16T08:22:37.117Z,7.28
2019-03-16T08:25:08.168Z,6.17
2019-03-16T08:27:38.138Z,6.67
2019-03-16T08:30:11.371Z,6.33
2019-03-16T08:32:43.769Z,6.17
2019-03-16T08:35:13.852Z,5.70
2019-03-16T08:37:43.898Z,5.03
2019-03-16T08:40:23.296Z,5.97
2019-03-16T08:42:57.379Z,6.15
2019-03-16T08:45:27.094Z,5.50
2019-03-16T08:48:03.224Z,5.75
2019-03-16T08:50:32.954Z,7.72
2019-03-16T08:53:22.901Z,6.20
2019-03-16T08:56:10.102Z,6.25
2019-03-16T08:59:01.542Z,6.00
2019-03-16T09:11:33.946Z,5.67
2019-03-16T09:17:53.910Z,6.62
2019-03-16T10:13:53.650Z,2.27
2019-03-16T10:16:23.377Z,2.58
2019-03-16T10:18:53.262Z,2.33
2019-03-16T10:21:23.970Z,2.62
2019-03-16T10:23:53.704Z,2.70
2019-03-16T10:26:23.539Z,3.42
2019-03-16T10:28:53.373Z,2.20
2019-03-16T10:31:23.159Z,2.30
2019-03-16T10:37:21.291Z,2.22
2019-03-16T10:39:54.100Z,2.12
2019-03-16T10:42:31.423Z,2.83
2019-03-16T10:45:13.662Z,2.30
2019-03-16T10:47:44.941Z,3.15
2019-03-16T10:50:15.469Z,2.77
2019-03-16T10:52:46.815Z,2.22
2019-03-16T10:55:28.717Z,2.30
2019-03-16T10:58:00.052Z,2.22
2019-03-16T11:00:33.632Z,2.15
2019-03-16T11:03:04.331Z,2.22
2019-03-16T11:05:38.082Z,2.20
2019-03-16T11:08:09.159Z,2.35
2019-03-16T11:10:43.264Z,2.30
2019-03-16T11:13:14.268Z,2.52
2019-03-16T11:18:22.765Z,2.15
2019-03-16T11:20:58.847Z,2.08
2019-03-16T11:23:30.424Z,2.45
2019-03-16T11:26:00.465Z,2.50
2019-03-16T11:28:51.687Z,2.37
2019-03-16T11:31:11.677Z,2.20
2019-03-16T11:33:50.496Z,2.22
2019-03-16T11:36:58.206Z,2.00
2019-03-16T11:39:32.067Z,1.80
2019-03-16T11:42:10.910Z,1.40
2019-03-16T11:44:47.472Z,1.72
2019-03-16T11:49:45.360Z,2.17
2019-03-16T11:52:17.728Z,1.98
2019-03-16T11:54:52.200Z,2.00
2019-03-16T11:57:28.015Z,1.57
2019-03-16T12:00:07.704Z,2.12
2019-03-16T12:02:43.073Z,2.52
2019-03-16T12:05:21.040Z,2.37
2019-03-16T12:08:07.643Z,1.75
2019-03-16T12:10:57.848Z,1.82
2019-03-16T12:13:43.782Z,1.92
2019-03-16T12:16:18.518Z,1.70
2019-03-16T12:19:06.766Z,1.60
2019-03-16T12:21:24.500Z,1.67
2019-03-16T12:24:04.062Z,2.15
2019-03-16T12:26:34.143Z,1.47
2019-03-16T12:29:04.133Z,1.20
2019-03-16T12:31:35.537Z,1.27
2019-03-16T12:34:14.599Z,1.35
2019-03-16T12:36:45.614Z,1.42
2019-03-16T12:39:25.922Z,1.52
2019-03-16T12:42:01.920Z,1.20
2019-03-16T12:44:30.980Z,1.50
2019-03-16T12:47:03.285Z,1.30
2019-03-16T12:49:33.169Z,1.10
2019-03-16T12:52:03.227Z,0.82
2019-03-16T12:54:33.039Z,0.65
2019-03-16T12:57:02.923Z,0.90
2019-03-16T12:59:48.057Z,0.78
2019-03-16T13:02:22.679Z,0.80
2019-03-16T13:04:54.382Z,1.10
2019-03-16T13:07:27.638Z,1.55
2019-03-16T13:10:02.022Z,1.05
2019-03-16T13:12:42.368Z,0.80
2019-03-16T13:15:18.502Z,1.10
2019-03-16T13:17:47.772Z,1.15
2019-03-16T13:20:26.713Z,1.10
2019-03-16T13:23:05.269Z,1.05
2019-03-16T13:25:43.095Z,1.20
2019-03-16T13:28:15.673Z,1.20
2019-03-16T13:30:45.664Z,1.15
2019-03-16T13:33:21.489Z,1.02
2019-03-16T13:35:52.477Z,1.05
2019-03-16T13:38:22.992Z,1.02
2019-03-16T13:44:14.804Z,1.30
2019-03-16T13:46:47.366Z,1.20
2019-03-16T13:49:23.362Z,1.55
2019-03-16T13:51:53.364Z,1.35
2019-03-16T13:54:23.391Z,2.12
2019-03-16T13:56:53.245Z,1.98
2019-03-16T13:59:23.330Z,1.22
2019-03-16T14:01:53.189Z,1.70
2019-03-16T14:04:24.324Z,1.50
2019-03-16T14:07:08.131Z,1.30
2019-03-16T14:09:38.120Z,1.52
2019-03-16T14:12:09.774Z,1.62
2019-03-16T14:14:41.277Z,1.95
2019-03-16T14:17:14.599Z,2.33
2019-03-16T14:19:47.475Z,1.22
2019-03-16T14:22:18.869Z,1.77
2019-03-16T14:24:48.800Z,1.65
2019-03-16T14:27:22.699Z,1.30
2019-03-16T14:29:54.313Z,1.25
2019-03-16T14:32:24.206Z,1.65
2019-03-16T14:34:54.351Z,1.60
2019-03-16T14:37:27.660Z,1.37
2019-03-16T14:40:14.980Z,1.60
2019-03-16T14:42:42.525Z,2.45
2019-03-16T14:45:36.881Z,1.77
2019-03-16T14:48:09.304Z,1.50
2019-03-16T14:50:44.784Z,2.00
2019-03-16T14:53:18.422Z,1.92
2019-03-16T14:55:48.331Z,1.70
2019-03-16T14:58:25.476Z,1.87
2019-03-16T15:01:07.990Z,1.80
2019-03-16T15:12:39.082Z,1.90
2019-03-16T15:15:27.104Z,2.72
2019-03-16T15:17:52.843Z,1.77
2019-03-16T15:26:47.331Z,2.02
2019-03-16T15:29:26.583Z,1.72
2019-03-16T15:31:57.860Z,1.57
2019-03-16T15:34:32.998Z,2.33
2019-03-16T15:43:05.130Z,2.95
2019-03-16T15:45:39.383Z,2.87
2019-03-16T15:48:32.381Z,3.10
2019-03-16T15:51:06.773Z,2.47
2019-03-16T15:54:13.295Z,3.60
2019-03-16T15:56:45.653Z,4.50
2019-03-16T16:14:06.682Z,5.70
2019-03-16T16:19:34.246Z,3.98
2019-03-16T16:22:08.743Z,4.40
2019-03-16T16:24:43.490Z,3.98
2019-03-16T16:27:13.621Z,4.75
2019-03-16T16:29:51.910Z,3.98
2019-03-16T16:32:36.357Z,3.65
2019-03-16T16:35:12.166Z,4.03
2019-03-16T16:40:16.339Z,3.35
2019-03-16T16:42:47.692Z,3.10
2019-03-16T16:45:18.970Z,3.25
2019-03-16T16:47:48.957Z,3.40
2019-03-16T16:50:24.532Z,2.87
2019-03-16T16:52:55.852Z,3.65
2019-03-16T16:55:32.008Z,3.27
2019-03-16T16:58:01.947Z,3.30
2019-03-16T17:00:33.275Z,2.87
2019-03-16T17:05:58.957Z,4.92
2019-03-16T17:08:36.663Z,5.08
2019-03-16T17:16:54.675Z,3.70
2019-03-16T17:19:36.003Z,3.40
2019-03-16T19:27:19.376Z,4.58
2019-03-16T20:04:50.774Z,4.28
2019-03-16T20:07:22.936Z,4.60
2019-03-16T20:09:52.869Z,4.62
2019-03-16T20:12:22.742Z,4.95
2019-03-16T20:14:53.910Z,4.25
2019-03-16T20:17:25.128Z,4.83
2019-03-16T20:19:54.999Z,4.55
2019-03-16T20:22:24.826Z,4.97
2019-03-16T20:24:54.789Z,4.55
2019-03-16T20:27:26.574Z,4.70
2019-03-16T20:29:56.454Z,4.87
2019-03-16T20:32:26.339Z,4.72
2019-03-16T20:34:56.228Z,4.97
2019-03-16T20:37:26.196Z,4.97
2019-03-16T20:39:56.085Z,5.35
2019-03-16T20:42:25.941Z,5.45
2019-03-16T20:44:55.843Z,5.75
2019-03-16T20:47:27.243Z,4.95
2019-03-16T20:49:57.079Z,5.33
2019-03-16T20:52:27.050Z,5.42
2019-03-16T20:54:57.005Z,6.45
2019-03-16T20:57:27.043Z,6.33
2019-03-16T20:59:56.988Z,6.60
2019-03-16T21:02:26.867Z,6.10
2019-03-16T21:04:56.706Z,6.28
2019-03-16T21:07:26.551Z,6.37
2019-03-16T21:09:56.379Z,7.15
2019-03-16T21:12:26.209Z,6.55
2019-03-16T21:14:56.148Z,6.40
2019-03-16T21:17:26.718Z,7.33
2019-03-16T21:19:56.689Z,6.80
2019-03-16T21:22:35.508Z,8.05
2019-03-16T21:24:58.016Z,7.35
2019-03-16T21:27:27.864Z,7.47
2019-03-16T21:29:57.679Z,7.60
2019-03-16T21:32:27.628Z,7.90
2019-03-16T21:34:57.469Z,7.58
2019-03-16T21:37:27.539Z,7.25
2019-03-16T21:39:57.842Z,7.95
2019-03-16T21:42:27.764Z,7.97
2019-03-16T21:44:57.775Z,8.00
2019-03-16T21:47:27.580Z,7.78
2019-03-16T21:49:57.935Z,8.05
2019-03-16T21:52:27.771Z,8.23
2019-03-16T21:55:00.624Z,9.45
2019-03-16T21:57:30.643Z,7.78
2019-03-16T22:00:00.677Z,7.87
2019-03-16T22:02:30.494Z,8.63
2019-03-16T22:05:03.327Z,7.83
2019-03-16T22:07:33.136Z,8.08
2019-03-16T22:10:04.565Z,7.67
2019-03-16T22:12:37.176Z,7.70
2019-03-16T22:15:16.007Z,9.00
2019-03-16T22:20:45.467Z,7.03
2019-03-16T22:23:16.952Z,7.60
2019-03-16T22:26:00.692Z,7.55
2019-03-16T22:28:35.386Z,6.83
2019-03-16T22:31:20.416Z,7.15
2019-03-16T22:33:54.721Z,6.40
2019-03-16T22:36:36.021Z,6.12
2019-03-16T22:39:10.112Z,7.10
2019-03-16T22:41:41.699Z,6.87
2019-03-16T22:44:13.227Z,7.15
2019-03-16T22:46:44.522Z,7.03
2019-03-16T22:49:25.243Z,6.40
2019-03-16T22:54:55.934Z,6.70
2019-03-16T22:57:43.870Z,6.60
2019-03-16T23:00:49.906Z,6.28
2019-03-16T23:03:27.694Z,6.12
2019-03-16T23:05:58.267Z,5.05
2019-03-16T23:08:29.741Z,5.22
2019-03-16T23:11:08.634Z,4.33
2019-03-16T23:13:59.311Z,4.53
2019-03-16T23:16:41.706Z,4.45
2019-03-16T23:19:19.981Z,4.10
2019-03-16T23:21:52.880Z,4.15
2019-03-16T23:24:25.618Z,3.87
2019-03-16T23:27:01.872Z,3.30
2019-03-16T23:29:38.498Z,3.67
2019-03-16T23:32:18.120Z,3.73
2019-03-16T23:34:52.017Z,3.92
2019-03-16T23:37:27.180Z,3.40
2019-03-16T23:40:01.450Z,3.45
2019-03-16T23:43:02.606Z,3.08
2019-03-16T23:45:35.052Z,3.17
2019-03-16T23:48:06.267Z,3.05
2019-03-16T23:50:45.956Z,4.85
2019-03-16T23:53:16.357Z,3.30
2019-03-16T23:55:47.164Z,3.00
2019-03-16T23:58:19.398Z,2.95
